Time;durP1;ratioP1;P1;durP2;ratioP2;P2;SDS_P1;SDS_P2;PMS_P1;PMS_P2;Temp;Humidity;BMP_temperature;BMP_pressure;BME280_temperature;BME280_humidity;BME280_pressure;Samples;Min_cycle;Max_cycle;Signal;HPM_P1;HPM_P2
2022/01/20 00:00:33;;;;;;;8.30;1.23;;;;;;;;;;4988034;28;20041;-88
2022/01/20 00:03:15;;;;;;;25.65;2.40;;;;;;;;;;4930049;28;20054;-87
2022/01/20 00:27:39;;;;;;;12.25;2.17;;;;;;;;;;4928586;29;20479;-88
2022/01/20 00:30:33;;;;;;;13.98;1.60;;;;;;;;;;4932460;29;20101;-87
2022/01/20 00:37:14;;;;;;;13.07;1.98;;;;;;;;;;5008598;28;20062;-86
2022/01/20 00:38:23;;;;;;;24.20;2.42;;;;;;;;;;4994135;28;20132;-87
2022/01/20 00:40:49;;;;;;;18.17;2.20;;;;;;;;;;4993273;28;20124;-86
2022/01/20 00:43:17;;;;;;;14.63;1.90;;;;;;;;;;4977114;28;20034;-86
2022/01/20 00:45:43;;;;;;;17.52;2.40;;;;;;;;;;4991112;28;20041;-85
2022/01/20 00:48:09;;;;;;;13.57;2.15;;;;;;;;;;4989853;28;20033;-86
2022/01/20 00:50:41;;;;;;;15.07;1.95;;;;;;;;;;4991910;28;20045;-87
2022/01/20 00:53:07;;;;;;;21.80;2.53;;;;;;;;;;4975974;28;20153;-87
2022/01/20 00:55:35;;;;;;;15.60;2.15;;;;;;;;;;5007920;28;20122;-87
2022/01/20 00:58:04;;;;;;;23.02;3.08;;;;;;;;;;4991192;28;20038;-86
2022/01/20 01:00:30;;;;;;;16.08;2.97;;;;;;;;;;4973244;28;20061;-85
2022/01/20 01:02:56;;;;;;;17.52;2.30;;;;;;;;;;5009552;28;20053;-86
2022/01/20 01:05:24;;;;;;;11.57;2.15;;;;;;;;;;4988213;28;20061;-86
2022/01/20 01:07:52;;;;;;;10.10;1.33;;;;;;;;;;5008961;28;20103;-86
2022/01/20 01:10:20;;;;;;;9.73;1.08;;;;;;;;;;5006667;28;20525;-87
2022/01/20 01:15:43;;;;;;;9.40;1.50;;;;;;;;;;4990236;28;20497;-84
2022/01/20 01:23:36;;;;;;;10.20;1.73;;;;;;;;;;5007229;28;20056;-86
2022/01/20 01:26:06;;;;;;;13.07;1.27;;;;;;;;;;5009574;28;20034;-84
2022/01/20 01:28:35;;;;;;;25.10;2.08;;;;;;;;;;4957288;28;20112;-85
2022/01/20 01:33:39;;;;;;;13.95;1.55;;;;;;;;;;5007545;28;20042;-86
2022/01/20 01:36:08;;;;;;;20.50;2.75;;;;;;;;;;5007779;28;20050;-85
2022/01/20 01:38:38;;;;;;;19.55;2.78;;;;;;;;;;5007938;28;20049;-87
2022/01/20 01:41:17;;;;;;;9.82;1.70;;;;;;;;;;5005909;28;20049;-87
2022/01/20 01:43:45;;;;;;;14.43;2.22;;;;;;;;;;4990867;28;20052;-86
2022/01/20 01:46:12;;;;;;;16.48;2.83;;;;;;;;;;5006074;28;20045;-86
2022/01/20 01:48:45;;;;;;;20.75;2.17;;;;;;;;;;5008686;28;20042;-87
2022/01/20 01:51:11;;;;;;;14.90;2.53;;;;;;;;;;4971368;28;20046;-86
2022/01/20 01:53:38;;;;;;;7.20;1.40;;;;;;;;;;4990248;28;20099;-86
2022/01/20 01:56:05;;;;;;;12.82;1.33;;;;;;;;;;5006612;28;20394;-85
2022/01/20 01:58:34;;;;;;;16.30;2.08;;;;;;;;;;4990124;28;20490;-87
2022/01/20 02:01:06;;;;;;;16.50;2.70;;;;;;;;;;4987448;28;20530;-87
2022/01/20 02:03:41;;;;;;;9.75;2.35;;;;;;;;;;4987758;28;20062;-85
2022/01/20 02:09:14;;;;;;;23.65;3.00;;;;;;;;;;4992251;28;20133;-86
2022/01/20 02:19:58;;;;;;;28.08;3.65;;;;;;;;;;4974886;28;20057;-87
2022/01/20 02:22:25;;;;;;;22.85;3.00;;;;;;;;;;4974369;28;20045;-86
2022/01/20 02:24:51;;;;;;;25.58;2.92;;;;;;;;;;4977628;28;20126;-87
2022/01/20 02:27:17;;;;;;;28.58;4.13;;;;;;;;;;4971360;28;20478;-87
2022/01/20 02:29:44;;;;;;;35.90;4.78;;;;;;;;;;4987487;28;20046;-87
2022/01/20 02:32:11;;;;;;;17.95;2.80;;;;;;;;;;4987220;28;20043;-86
2022/01/20 02:34:37;;;;;;;14.48;3.25;;;;;;;;;;4981087;28;20034;-86
2022/01/20 02:37:09;;;;;;;19.88;2.78;;;;;;;;;;4974579;28;20054;-86
2022/01/20 02:45:14;;;;;;;28.52;3.60;;;;;;;;;;5130628;27;1251760;-86
2022/01/20 02:47:50;;;;;;;32.88;3.90;;;;;;;;;;5148077;27;20046;-85
2022/01/20 02:50:26;;;;;;;28.02;4.97;;;;;;;;;;5131116;27;20043;-86
2022/01/20 02:52:52;;;;;;;33.63;4.38;;;;;;;;;;5130394;27;20066;-85
2022/01/20 02:55:19;;;;;;;35.17;6.10;;;;;;;;;;5110902;27;20035;-85
2022/01/20 02:57:45;;;;;;;31.38;4.38;;;;;;;;;;5095330;27;20393;-86
2022/01/20 03:00:12;;;;;;;26.77;4.63;;;;;;;;;;5118125;27;20046;-85
2022/01/20 03:02:38;;;;;;;33.03;4.78;;;;;;;;;;5136327;27;20067;-87
2022/01/20 03:05:07;;;;;;;18.45;4.53;;;;;;;;;;5112577;27;20048;-86
2022/01/20 03:07:33;;;;;;;19.48;4.20;;;;;;;;;;5145545;27;20234;-85
2022/01/20 03:09:59;;;;;;;22.30;3.88;;;;;;;;;;5144705;27;20079;-85
2022/01/20 03:12:25;;;;;;;23.27;3.72;;;;;;;;;;5103212;27;20043;-85
2022/01/20 03:14:51;;;;;;;23.58;4.43;;;;;;;;;;5127687;27;20039;-85
2022/01/20 03:17:17;;;;;;;19.70;3.83;;;;;;;;;;5107440;27;20491;-85
2022/01/20 03:19:43;;;;;;;24.27;3.40;;;;;;;;;;5105993;27;20490;-87
2022/01/20 03:22:10;;;;;;;23.38;5.25;;;;;;;;;;5145230;27;20371;-84
2022/01/20 03:24:36;;;;;;;18.95;2.60;;;;;;;;;;5146393;27;20035;-86
2022/01/20 03:27:02;;;;;;;22.90;3.30;;;;;;;;;;5145406;27;20031;-84
2022/01/20 03:29:28;;;;;;;12.95;2.58;;;;;;;;;;5147930;27;20043;-85
2022/01/20 03:31:54;;;;;;;27.17;3.95;;;;;;;;;;5126275;27;20041;-85
2022/01/20 03:34:21;;;;;;;19.45;3.35;;;;;;;;;;5109966;27;20082;-86
2022/01/20 03:36:48;;;;;;;18.55;3.15;;;;;;;;;;5125978;27;20567;-85
2022/01/20 03:39:14;;;;;;;23.60;3.83;;;;;;;;;;5144530;27;20494;-84
2022/01/20 03:41:40;;;;;;;13.80;2.63;;;;;;;;;;5145057;27;20038;-85
2022/01/20 03:44:06;;;;;;;12.02;2.28;;;;;;;;;;5142685;27;20066;-86
2022/01/20 03:46:33;;;;;;;11.25;2.40;;;;;;;;;;5145930;27;20058;-85
2022/01/20 03:49:20;;;;;;;11.38;2.50;;;;;;;;;;5124859;27;20042;-87
2022/01/20 03:51:46;;;;;;;9.38;2.80;;;;;;;;;;5125250;27;20524;-86
2022/01/20 03:54:13;;;;;;;17.55;3.33;;;;;;;;;;5109670;27;20459;-85
2022/01/20 03:56:40;;;;;;;22.55;4.68;;;;;;;;;;5130415;27;20388;-84
2022/01/20 03:59:06;;;;;;;10.80;2.22;;;;;;;;;;5131509;27;20096;-83
2022/01/20 04:01:32;;;;;;;23.50;3.72;;;;;;;;;;5130822;27;20060;-84
2022/01/20 04:03:58;;;;;;;16.65;3.15;;;;;;;;;;5112870;27;20077;-85
2022/01/20 04:06:27;;;;;;;21.70;3.53;;;;;;;;;;5114139;27;20502;-84
2022/01/20 04:08:53;;;;;;;16.58;2.78;;;;;;;;;;5115037;27;20103;-84
2022/01/20 04:11:24;;;;;;;21.55;4.20;;;;;;;;;;5130572;27;20031;-84
2022/01/20 04:13:51;;;;;;;23.48;4.20;;;;;;;;;;5130726;27;20042;-84
2022/01/20 04:16:36;;;;;;;12.88;3.60;;;;;;;;;;5130660;27;20250;-84
2022/01/20 04:19:11;;;;;;;17.80;3.05;;;;;;;;;;5111656;27;20058;-84
2022/01/20 04:21:38;;;;;;;20.27;3.60;;;;;;;;;;5130786;27;20102;-85
2022/01/20 04:24:05;;;;;;;16.70;3.80;;;;;;;;;;5129936;27;20031;-84
2022/01/20 04:26:33;;;;;;;21.48;3.50;;;;;;;;;;5130625;27;20123;-85
2022/01/20 04:28:59;;;;;;;18.23;3.13;;;;;;;;;;5093314;27;20039;-84
2022/01/20 04:31:27;;;;;;;16.50;2.75;;;;;;;;;;5095122;27;20073;-85
2022/01/20 04:33:53;;;;;;;20.75;3.63;;;;;;;;;;5093499;27;20467;-85
2022/01/20 04:36:19;;;;;;;15.73;3.08;;;;;;;;;;5129740;27;20068;-85
2022/01/20 04:38:46;;;;;;;18.48;3.35;;;;;;;;;;5112362;27;20154;-85
2022/01/20 04:41:12;;;;;;;14.00;2.30;;;;;;;;;;5129289;27;20513;-84
2022/01/20 04:43:38;;;;;;;11.85;1.95;;;;;;;;;;5130636;27;20043;-84
2022/01/20 04:46:21;;;;;;;20.52;3.03;;;;;;;;;;5128407;27;20058;-84
2022/01/20 04:59:27;;;;;;;13.70;3.47;;;;;;;;;;5108419;27;20854;-85
2022/01/20 05:01:53;;;;;;;24.65;4.35;;;;;;;;;;5108095;27;20047;-86
2022/01/20 05:04:19;;;;;;;17.20;3.08;;;;;;;;;;5089617;27;20046;-86
2022/01/20 05:06:47;;;;;;;18.88;3.47;;;;;;;;;;5118066;27;20111;-85
2022/01/20 05:09:18;;;;;;;27.05;3.42;;;;;;;;;;5101746;27;20039;-86
2022/01/20 05:11:49;;;;;;;19.02;2.95;;;;;;;;;;5130333;27;20088;-86
2022/01/20 05:14:15;;;;;;;18.60;3.03;;;;;;;;;;5107015;27;20114;-84
2022/01/20 05:16:41;;;;;;;21.80;2.70;;;;;;;;;;5110194;27;20038;-86
2022/01/20 05:19:07;;;;;;;24.25;3.75;;;;;;;;;;5128388;27;20042;-85
2022/01/20 05:21:33;;;;;;;21.23;3.08;;;;;;;;;;5125608;27;20052;-86
2022/01/20 05:24:00;;;;;;;20.85;4.10;;;;;;;;;;5128397;27;20043;-88
2022/01/20 05:26:27;;;;;;;22.20;3.42;;;;;;;;;;5090664;27;20135;-88
2022/01/20 05:28:53;;;;;;;18.77;3.55;;;;;;;;;;5108813;27;20086;-90
2022/01/20 05:31:19;;;;;;;10.13;3.17;;;;;;;;;;5090627;27;20039;-90
2022/01/20 05:33:45;;;;;;;10.88;1.70;;;;;;;;;;5106838;27;20126;-88
2022/01/20 05:36:11;;;;;;;12.18;1.70;;;;;;;;;;5106978;27;20080;-88
2022/01/20 05:38:37;;;;;;;17.02;2.28;;;;;;;;;;5106596;27;20109;-87
2022/01/20 05:41:13;;;;;;;17.52;2.60;;;;;;;;;;5086921;27;20066;-89
2022/01/20 05:43:39;;;;;;;17.52;2.25;;;;;;;;;;5106984;27;20095;-88
2022/01/20 05:46:05;;;;;;;17.23;3.40;;;;;;;;;;5090125;27;20047;-87
2022/01/20 05:48:34;;;;;;;25.55;3.33;;;;;;;;;;5090248;27;20618;-88
2022/01/20 05:54:20;;;;;;;24.83;3.60;;;;;;;;;;5041182;27;20151;-88
2022/01/20 05:56:50;;;;;;;16.23;2.95;;;;;;;;;;5108241;27;20043;-87
2022/01/20 05:59:16;;;;;;;21.42;4.05;;;;;;;;;;5086487;27;20417;-85
2022/01/20 06:01:46;;;;;;;26.73;3.90;;;;;;;;;;5124934;27;20507;-86
2022/01/20 06:04:14;;;;;;;23.17;2.92;;;;;;;;;;5106104;27;20055;-88
2022/01/20 06:06:44;;;;;;;18.92;3.03;;;;;;;;;;5074774;27;20692;-83
2022/01/20 06:09:10;;;;;;;20.30;3.35;;;;;;;;;;5121244;27;20051;-85
2022/01/20 06:11:37;;;;;;;13.88;2.45;;;;;;;;;;5108313;27;20490;-86
2022/01/20 06:14:03;;;;;;;22.65;3.55;;;;;;;;;;5118299;27;20051;-85
2022/01/20 06:16:30;;;;;;;16.42;3.88;;;;;;;;;;5128751;27;20031;-86
2022/01/20 06:18:56;;;;;;;20.27;3.47;;;;;;;;;;5129757;27;20528;-84
2022/01/20 06:21:22;;;;;;;21.90;3.05;;;;;;;;;;5111956;27;20122;-86
2022/01/20 06:23:56;;;;;;;20.00;4.55;;;;;;;;;;5129968;27;20066;-86
2022/01/20 06:26:22;;;;;;;18.45;3.13;;;;;;;;;;5114625;27;20096;-85
2022/01/20 06:28:48;;;;;;;22.30;3.00;;;;;;;;;;5109302;27;20051;-86
2022/01/20 06:31:16;;;;;;;19.88;3.97;;;;;;;;;;5127898;27;20063;-87
2022/01/20 06:33:42;;;;;;;22.50;3.15;;;;;;;;;;5109585;27;20051;-84
2022/01/20 06:36:08;;;;;;;19.08;3.17;;;;;;;;;;5128023;27;20047;-85
2022/01/20 06:38:34;;;;;;;18.35;3.63;;;;;;;;;;5109842;28;20406;-87
2022/01/20 06:41:00;;;;;;;16.95;3.22;;;;;;;;;;5110204;28;20104;-85
2022/01/20 06:43:28;;;;;;;33.15;5.95;;;;;;;;;;5087601;28;20060;-86
2022/01/20 06:45:54;;;;;;;14.90;2.20;;;;;;;;;;5091256;28;20049;-86
2022/01/20 06:48:20;;;;;;;21.35;4.10;;;;;;;;;;5109173;28;20046;-84
2022/01/20 06:50:46;;;;;;;16.40;2.38;;;;;;;;;;5109359;28;20039;-86
2022/01/20 06:53:12;;;;;;;7.78;0.95;;;;;;;;;;5093174;28;20128;-87
2022/01/20 06:55:38;;;;;;;4.72;0.98;;;;;;;;;;5107810;28;20114;-85
2022/01/20 06:58:04;;;;;;;6.28;1.35;;;;;;;;;;5124736;28;20055;-88
2022/01/20 07:00:31;;;;;;;12.85;2.30;;;;;;;;;;5105217;28;20028;-85
2022/01/20 07:02:57;;;;;;;20.05;3.20;;;;;;;;;;5111215;28;20051;-86
2022/01/20 07:05:24;;;;;;;24.70;4.45;;;;;;;;;;5094186;28;20422;-88
2022/01/20 07:07:50;;;;;;;17.50;2.47;;;;;;;;;;5127956;28;20039;-84
2022/01/20 07:10:17;;;;;;;15.05;2.65;;;;;;;;;;5112587;28;20368;-85
2022/01/20 07:12:44;;;;;;;14.15;2.33;;;;;;;;;;5134410;28;20056;-87
2022/01/20 07:15:10;;;;;;;24.63;3.13;;;;;;;;;;5123302;28;20044;-86
2022/01/20 07:17:36;;;;;;;15.88;3.03;;;;;;;;;;5122771;28;20031;-87
2022/01/20 07:20:03;;;;;;;16.10;3.20;;;;;;;;;;5126365;28;20434;-83
2022/01/20 07:22:29;;;;;;;17.67;2.92;;;;;;;;;;5103599;28;20050;-85
2022/01/20 07:24:55;;;;;;;25.02;3.58;;;;;;;;;;5124755;28;20110;-85
2022/01/20 07:27:21;;;;;;;19.60;3.45;;;;;;;;;;5116281;28;20072;-86
2022/01/20 07:29:47;;;;;;;24.40;4.22;;;;;;;;;;5089966;28;20766;-84
2022/01/20 07:32:13;;;;;;;22.52;4.15;;;;;;;;;;5103293;27;20527;-87
2022/01/20 07:34:39;;;;;;;33.22;4.75;;;;;;;;;;5110969;27;20051;-85
2022/01/20 07:37:05;;;;;;;23.05;3.65;;;;;;;;;;5129592;27;20088;-87
2022/01/20 07:39:32;;;;;;;18.88;3.33;;;;;;;;;;5132048;27;20028;-85
2022/01/20 07:41:58;;;;;;;25.27;3.53;;;;;;;;;;5110147;27;20045;-84
2022/01/20 07:44:24;;;;;;;20.15;3.13;;;;;;;;;;5109414;28;20098;-87
2022/01/20 07:46:50;;;;;;;18.25;2.53;;;;;;;;;;5094060;28;20464;-86
2022/01/20 07:49:16;;;;;;;21.35;3.33;;;;;;;;;;5109685;28;20110;-86
2022/01/20 07:51:43;;;;;;;16.38;2.70;;;;;;;;;;5110703;28;20502;-85
2022/01/20 07:54:09;;;;;;;20.00;3.60;;;;;;;;;;5110496;28;20470;-86
2022/01/20 07:56:36;;;;;;;19.25;3.17;;;;;;;;;;5108596;28;20043;-85
2022/01/20 07:59:03;;;;;;;17.08;2.58;;;;;;;;;;5109907;28;20042;-85
2022/01/20 08:01:29;;;;;;;20.88;3.03;;;;;;;;;;5109407;28;20054;-86
2022/01/20 08:03:55;;;;;;;24.08;3.05;;;;;;;;;;5090651;28;20429;-83
2022/01/20 08:06:22;;;;;;;30.65;4.43;;;;;;;;;;5108637;28;20083;-85
2022/01/20 08:08:50;;;;;;;25.35;3.45;;;;;;;;;;5109956;28;20040;-85
2022/01/20 08:11:16;;;;;;;29.63;3.55;;;;;;;;;;5110401;28;20039;-85
2022/01/20 08:13:42;;;;;;;31.55;4.50;;;;;;;;;;5091804;28;20114;-86
2022/01/20 08:16:08;;;;;;;24.27;3.72;;;;;;;;;;5109338;28;20688;-86
2022/01/20 08:18:34;;;;;;;19.52;3.42;;;;;;;;;;5108927;28;20499;-86
2022/01/20 08:21:00;;;;;;;26.02;3.70;;;;;;;;;;5102680;28;20419;-85
2022/01/20 08:23:26;;;;;;;12.25;2.72;;;;;;;;;;5088485;28;20175;-86
2022/01/20 08:25:53;;;;;;;24.70;3.60;;;;;;;;;;5089264;28;20160;-86
2022/01/20 08:28:21;;;;;;;16.55;2.80;;;;;;;;;;5107266;28;20487;-86
2022/01/20 08:30:47;;;;;;;18.50;3.40;;;;;;;;;;5092562;28;20051;-86
2022/01/20 08:33:14;;;;;;;20.50;2.88;;;;;;;;;;5109468;28;20445;-86
2022/01/20 08:35:40;;;;;;;19.63;2.95;;;;;;;;;;5108855;28;20135;-85
2022/01/20 08:38:07;;;;;;;13.75;2.03;;;;;;;;;;5099646;28;20455;-85
2022/01/20 08:40:34;;;;;;;15.55;2.80;;;;;;;;;;5087709;28;20507;-86
2022/01/20 08:43:00;;;;;;;17.38;2.75;;;;;;;;;;5088503;28;20081;-82
2022/01/20 08:45:29;;;;;;;17.08;2.88;;;;;;;;;;5102551;28;20051;-86
2022/01/20 08:47:56;;;;;;;15.48;3.85;;;;;;;;;;5109678;28;20044;-85
2022/01/20 08:50:23;;;;;;;21.27;3.00;;;;;;;;;;5091108;28;20047;-85
2022/01/20 08:52:50;;;;;;;14.25;2.67;;;;;;;;;;5091029;28;20039;-83
2022/01/20 08:55:16;;;;;;;20.38;2.78;;;;;;;;;;5106904;27;20075;-84
2022/01/20 08:57:42;;;;;;;18.85;3.45;;;;;;;;;;5129623;27;20092;-85
2022/01/20 09:00:09;;;;;;;18.77;2.53;;;;;;;;;;5130531;27;20057;-85
2022/01/20 09:02:36;;;;;;;16.65;2.22;;;;;;;;;;5111935;27;20130;-85
2022/01/20 09:05:03;;;;;;;17.77;2.53;;;;;;;;;;5130858;27;20054;-84
2022/01/20 09:07:29;;;;;;;11.95;2.63;;;;;;;;;;5112877;27;20142;-84
2022/01/20 09:09:56;;;;;;;11.55;2.65;;;;;;;;;;5118747;27;20035;-85
2022/01/20 09:17:46;;;;;;;15.05;3.08;;;;;;;;;;5112596;27;20478;-86
2022/01/20 09:20:12;;;;;;;13.25;2.10;;;;;;;;;;5130027;27;20107;-84
2022/01/20 09:22:38;;;;;;;13.43;3.08;;;;;;;;;;5127659;27;20075;-86
2022/01/20 09:25:06;;;;;;;16.42;3.00;;;;;;;;;;5109287;28;20544;-87
2022/01/20 09:27:32;;;;;;;22.20;2.67;;;;;;;;;;5096751;28;20123;-85
2022/01/20 09:29:59;;;;;;;13.27;2.85;;;;;;;;;;5074182;28;20057;-85
2022/01/20 09:32:27;;;;;;;13.05;2.20;;;;;;;;;;5108219;28;20529;-84
2022/01/20 09:34:56;;;;;;;18.15;2.58;;;;;;;;;;5109518;28;20538;-87
2022/01/20 09:37:22;;;;;;;14.45;1.88;;;;;;;;;;5088166;27;20046;-86
2022/01/20 09:39:48;;;;;;;5.63;1.48;;;;;;;;;;5114592;27;20455;-87
2022/01/20 09:42:14;;;;;;;7.05;2.05;;;;;;;;;;5108359;28;20045;-85
2022/01/20 09:44:44;;;;;;;9.18;1.95;;;;;;;;;;5086010;28;20056;-85
2022/01/20 09:47:11;;;;;;;9.68;1.48;;;;;;;;;;5086728;28;20404;-85
2022/01/20 09:49:37;;;;;;;10.45;1.67;;;;;;;;;;5087249;28;20116;-86
2022/01/20 09:52:03;;;;;;;15.43;1.92;;;;;;;;;;5070729;28;20044;-84
2022/01/20 09:54:31;;;;;;;9.18;1.70;;;;;;;;;;5086610;28;20503;-86
2022/01/20 09:56:58;;;;;;;21.33;1.98;;;;;;;;;;5087267;28;20469;-86
2022/01/20 09:59:24;;;;;;;15.40;2.38;;;;;;;;;;5086018;28;20148;-85
2022/01/20 10:01:52;;;;;;;14.77;2.30;;;;;;;;;;5086037;28;20402;-86
2022/01/20 10:04:31;;;;;;;24.50;3.45;;;;;;;;;;5088081;28;20459;-87
2022/01/20 10:06:58;;;;;;;21.92;2.58;;;;;;;;;;5068626;28;20664;-86
2022/01/20 10:09:29;;;;;;;19.83;2.63;;;;;;;;;;5086834;28;20047;-85
2022/01/20 10:11:55;;;;;;;14.07;2.60;;;;;;;;;;5068727;28;20040;-85
2022/01/20 10:14:21;;;;;;;15.10;2.63;;;;;;;;;;5086657;28;20052;-85
2022/01/20 10:16:47;;;;;;;12.55;2.50;;;;;;;;;;5086432;28;20748;-85
2022/01/20 10:19:22;;;;;;;19.38;2.75;;;;;;;;;;5085914;28;20050;-85
2022/01/20 10:21:48;;;;;;;16.95;2.78;;;;;;;;;;5086016;28;20040;-84
2022/01/20 10:24:14;;;;;;;12.50;2.25;;;;;;;;;;5086145;28;20131;-84
2022/01/20 10:26:41;;;;;;;19.23;2.38;;;;;;;;;;5086251;28;20040;-86
2022/01/20 10:29:12;;;;;;;17.88;3.00;;;;;;;;;;5085038;28;20119;-87
2022/01/20 10:31:52;;;;;;;17.85;3.63;;;;;;;;;;5086918;28;20682;-85
2022/01/20 10:34:30;;;;;;;21.58;3.05;;;;;;;;;;5085501;28;20062;-86
2022/01/20 10:36:58;;;;;;;14.02;2.80;;;;;;;;;;5086407;28;20103;-87
2022/01/20 10:39:33;;;;;;;10.75;1.92;;;;;;;;;;5087369;28;20497;-86
2022/01/20 10:42:00;;;;;;;12.75;1.90;;;;;;;;;;5087278;28;20083;-87
2022/01/20 10:44:26;;;;;;;9.35;1.80;;;;;;;;;;5086182;28;20071;-85
2022/01/20 10:46:54;;;;;;;11.05;1.63;;;;;;;;;;5085759;28;20070;-87
2022/01/20 10:49:21;;;;;;;12.45;1.75;;;;;;;;;;5087513;28;20127;-85
2022/01/20 10:52:06;;;;;;;5.97;0.90;;;;;;;;;;5069249;28;20048;-84
2022/01/20 10:54:43;;;;;;;6.45;1.33;;;;;;;;;;5085799;28;20127;-85
2022/01/20 10:57:11;;;;;;;8.45;1.40;;;;;;;;;;5086305;28;20044;-86
2022/01/20 10:59:53;;;;;;;14.55;2.53;;;;;;;;;;5086719;28;20036;-86
2022/01/20 11:02:21;;;;;;;16.40;1.98;;;;;;;;;;5087143;28;20123;-86
2022/01/20 11:04:47;;;;;;;14.75;1.92;;;;;;;;;;5087108;28;20032;-87
2022/01/20 11:07:14;;;;;;;13.13;2.13;;;;;;;;;;5091531;28;20143;-85
2022/01/20 11:09:43;;;;;;;15.32;2.33;;;;;;;;;;5091865;28;20047;-86
2022/01/20 11:12:14;;;;;;;12.27;2.97;;;;;;;;;;5100258;28;20396;-85
2022/01/20 11:14:41;;;;;;;10.07;1.95;;;;;;;;;;5107974;28;20052;-83
2022/01/20 11:17:07;;;;;;;15.50;2.22;;;;;;;;;;5094600;28;20122;-86
2022/01/20 11:19:38;;;;;;;14.27;3.55;;;;;;;;;;5092614;28;20036;-86
2022/01/20 11:22:08;;;;;;;15.63;2.67;;;;;;;;;;5088950;28;20934;-86
2022/01/20 11:24:35;;;;;;;23.38;4.40;;;;;;;;;;5091397;28;20048;-85
2022/01/20 11:27:01;;;;;;;8.98;2.00;;;;;;;;;;5090878;28;20098;-85
2022/01/20 11:29:56;;;;;;;3.83;1.38;;;;;;;;;;5088405;28;20193;-85
2022/01/20 11:32:26;;;;;;;6.20;1.02;;;;;;;;;;5070881;28;20075;-86
2022/01/20 11:34:55;;;;;;;7.18;1.17;;;;;;;;;;5088893;28;20519;-85
2022/01/20 11:37:23;;;;;;;7.03;1.30;;;;;;;;;;5089665;28;20052;-86
2022/01/20 11:39:49;;;;;;;8.10;1.20;;;;;;;;;;5090558;28;20040;-87
2022/01/20 11:42:23;;;;;;;7.25;1.38;;;;;;;;;;5088684;28;20064;-86
2022/01/20 11:44:49;;;;;;;12.40;1.77;;;;;;;;;;5089753;28;20066;-86
2022/01/20 11:47:15;;;;;;;14.35;2.38;;;;;;;;;;5087845;28;20495;-85
2022/01/20 11:49:45;;;;;;;17.15;2.55;;;;;;;;;;5090633;28;20148;-86
2022/01/20 11:52:22;;;;;;;17.38;2.85;;;;;;;;;;5088417;28;20511;-86
2022/01/20 11:54:48;;;;;;;23.50;3.00;;;;;;;;;;5072692;28;20040;-85
2022/01/20 11:57:21;;;;;;;15.88;2.63;;;;;;;;;;5089967;28;20055;-86
2022/01/20 11:59:53;;;;;;;20.53;2.87;;;;;;;;;;5088252;28;20052;-85
2022/01/20 12:02:32;;;;;;;22.60;3.67;;;;;;;;;;5090702;28;20056;-85
2022/01/20 12:04:58;;;;;;;21.55;2.75;;;;;;;;;;5071613;28;20893;-86
2022/01/20 12:07:32;;;;;;;22.30;3.00;;;;;;;;;;5088905;28;20048;-82
2022/01/20 12:10:21;;;;;;;8.95;1.88;;;;;;;;;;5088953;28;20130;-82
2022/01/20 12:12:47;;;;;;;14.48;2.75;;;;;;;;;;5088608;28;20052;-82
2022/01/20 12:15:20;;;;;;;18.70;3.13;;;;;;;;;;5090106;28;20054;-81
2022/01/20 12:17:50;;;;;;;12.85;2.22;;;;;;;;;;5087954;28;20131;-83
2022/01/20 12:20:16;;;;;;;19.85;3.15;;;;;;;;;;5090398;28;20131;-83
2022/01/20 12:22:43;;;;;;;25.17;3.80;;;;;;;;;;5089635;28;20550;-85
2022/01/20 12:25:15;;;;;;;12.57;2.55;;;;;;;;;;5088560;28;20143;-81
2022/01/20 12:27:42;;;;;;;17.17;2.50;;;;;;;;;;5088364;28;20033;-83
2022/01/20 12:30:20;;;;;;;13.88;2.47;;;;;;;;;;5068506;28;20040;-82
2022/01/20 12:32:55;;;;;;;20.27;3.53;;;;;;;;;;5087964;28;20044;-82
2022/01/20 12:35:21;;;;;;;23.95;3.47;;;;;;;;;;5082319;28;20151;-83
2022/01/20 12:37:47;;;;;;;21.45;3.10;;;;;;;;;;5071070;28;20093;-84
2022/01/20 12:40:21;;;;;;;21.52;3.47;;;;;;;;;;5087489;28;20040;-82
2022/01/20 12:42:48;;;;;;;20.77;3.00;;;;;;;;;;5085801;28;20408;-84
2022/01/20 12:48:12;;;;;;;25.20;3.17;;;;;;;;;;5106396;28;20066;-84
2022/01/20 12:50:38;;;;;;;22.38;3.33;;;;;;;;;;5109212;28;20100;-83
2022/01/20 12:53:04;;;;;;;17.05;2.83;;;;;;;;;;5107458;28;20126;-82
2022/01/20 12:55:30;;;;;;;19.65;3.25;;;;;;;;;;5090844;28;20032;-82
2022/01/20 12:58:00;;;;;;;16.08;2.75;;;;;;;;;;5094157;28;20043;-82
2022/01/20 13:00:26;;;;;;;14.00;2.80;;;;;;;;;;5087197;28;20058;-82
2022/01/20 13:02:52;;;;;;;18.48;3.55;;;;;;;;;;5071504;28;20036;-81
2022/01/20 13:05:19;;;;;;;26.30;3.67;;;;;;;;;;5086229;28;20044;-81
2022/01/20 13:07:51;;;;;;;18.00;2.90;;;;;;;;;;5095640;28;20115;-85
2022/01/20 13:10:32;;;;;;;17.42;3.00;;;;;;;;;;5108067;28;20047;-86
2022/01/20 13:13:00;;;;;;;18.05;2.58;;;;;;;;;;5115121;28;20058;-85
2022/01/20 13:15:26;;;;;;;9.45;1.92;;;;;;;;;;5119803;28;20043;-85
2022/01/20 13:18:04;;;;;;;23.48;3.47;;;;;;;;;;5121131;28;20071;-83
2022/01/20 13:20:31;;;;;;;9.20;1.95;;;;;;;;;;5126648;27;20422;-83
2022/01/20 13:25:48;;;;;;;15.40;2.35;;;;;;;;;;5108221;28;20054;-84
2022/01/20 13:28:14;;;;;;;15.18;3.20;;;;;;;;;;5089974;28;20042;-84
2022/01/20 13:30:47;;;;;;;21.33;2.35;;;;;;;;;;5106880;28;20494;-82
2022/01/20 13:33:18;;;;;;;13.73;2.40;;;;;;;;;;5106007;28;20114;-85
2022/01/20 13:35:45;;;;;;;13.23;2.67;;;;;;;;;;5104639;28;20032;-84
2022/01/20 13:38:12;;;;;;;12.60;2.03;;;;;;;;;;5103731;28;20402;-83
2022/01/20 13:40:39;;;;;;;14.88;2.58;;;;;;;;;;5103610;28;20042;-82
2022/01/20 13:45:41;;;;;;;22.43;2.67;;;;;;;;;;5124612;27;20054;-84
2022/01/20 13:48:08;;;;;;;19.10;3.47;;;;;;;;;;5128010;27;20035;-87
2022/01/20 13:50:39;;;;;;;19.63;2.65;;;;;;;;;;5129337;27;20039;-86
2022/01/20 13:53:15;;;;;;;19.77;3.38;;;;;;;;;;5127962;27;20433;-88
2022/01/20 13:55:43;;;;;;;28.13;3.00;;;;;;;;;;5126211;27;20038;-87
2022/01/20 13:58:20;;;;;;;20.40;3.38;;;;;;;;;;5110856;27;20187;-87
2022/01/20 14:00:47;;;;;;;24.33;3.65;;;;;;;;;;5129615;27;20115;-86
2022/01/20 14:03:13;;;;;;;16.67;2.70;;;;;;;;;;5107527;28;20100;-88
2022/01/20 14:05:41;;;;;;;16.50;2.33;;;;;;;;;;5109956;27;20058;-86
2022/01/20 14:08:08;;;;;;;16.65;3.05;;;;;;;;;;5127220;27;20031;-89
2022/01/20 14:10:34;;;;;;;15.30;2.97;;;;;;;;;;5127467;27;20051;-87
2022/01/20 14:13:00;;;;;;;15.43;2.72;;;;;;;;;;5128507;27;20047;-87
2022/01/20 14:15:27;;;;;;;16.73;2.50;;;;;;;;;;5129586;27;20125;-88
2022/01/20 14:17:55;;;;;;;16.50;2.33;;;;;;;;;;5130397;27;20058;-88
2022/01/20 14:20:23;;;;;;;24.48;2.67;;;;;;;;;;5106703;28;20043;-87
2022/01/20 14:22:50;;;;;;;15.25;2.60;;;;;;;;;;5111882;27;20082;-88
2022/01/20 14:25:16;;;;;;;18.67;2.38;;;;;;;;;;5119000;27;20098;-89
2022/01/20 14:27:42;;;;;;;14.82;2.45;;;;;;;;;;5129384;27;20076;-87
2022/01/20 14:30:12;;;;;;;18.85;3.15;;;;;;;;;;5111885;27;20043;-86
2022/01/20 14:32:42;;;;;;;13.52;1.88;;;;;;;;;;5122500;27;20039;-84
2022/01/20 14:35:08;;;;;;;9.85;2.10;;;;;;;;;;5111459;28;20080;-87
2022/01/20 14:37:37;;;;;;;13.82;2.92;;;;;;;;;;5107422;27;20131;-87
2022/01/20 14:40:08;;;;;;;23.20;2.95;;;;;;;;;;5130102;27;20502;-86
2022/01/20 14:42:35;;;;;;;24.00;3.15;;;;;;;;;;5120517;27;20080;-85
2022/01/20 14:45:01;;;;;;;12.70;2.35;;;;;;;;;;5127834;28;20134;-83
2022/01/20 14:47:27;;;;;;;18.05;4.18;;;;;;;;;;5128108;28;20046;-88
2022/01/20 14:49:53;;;;;;;14.90;2.42;;;;;;;;;;5109789;28;20061;-87
2022/01/20 14:52:19;;;;;;;19.70;2.40;;;;;;;;;;5129717;28;20031;-87
2022/01/20 14:54:46;;;;;;;16.95;3.15;;;;;;;;;;5126422;28;20559;-86
2022/01/20 14:57:12;;;;;;;17.13;3.05;;;;;;;;;;5122788;28;20035;-85
2022/01/20 14:59:39;;;;;;;13.48;2.17;;;;;;;;;;5133763;28;20104;-87
2022/01/20 15:02:05;;;;;;;16.70;2.88;;;;;;;;;;5118323;28;20050;-87
2022/01/20 15:04:31;;;;;;;11.68;2.13;;;;;;;;;;5135818;28;20046;-85
2022/01/20 15:06:57;;;;;;;21.92;3.92;;;;;;;;;;5111382;28;20758;-85
2022/01/20 15:09:24;;;;;;;20.45;2.92;;;;;;;;;;5111673;28;20035;-88
2022/01/20 15:11:50;;;;;;;16.50;2.55;;;;;;;;;;5127741;28;20058;-87
2022/01/20 15:14:16;;;;;;;15.10;2.47;;;;;;;;;;5134376;28;20031;-87
2022/01/20 15:16:42;;;;;;;6.53;1.10;;;;;;;;;;5133523;28;20043;-86
2022/01/20 15:19:09;;;;;;;7.38;1.17;;;;;;;;;;5141326;28;20061;-86
2022/01/20 15:21:37;;;;;;;7.88;1.40;;;;;;;;;;5116628;28;20044;-86
2022/01/20 15:24:03;;;;;;;8.52;0.93;;;;;;;;;;5111053;28;20043;-85
2022/01/20 15:26:33;;;;;;;11.45;1.48;;;;;;;;;;5121811;28;20047;-87
2022/01/20 15:28:59;;;;;;;14.68;2.08;;;;;;;;;;5106728;28;20050;-88
2022/01/20 15:31:25;;;;;;;14.77;2.45;;;;;;;;;;5127272;28;20118;-88
2022/01/20 15:33:52;;;;;;;15.68;3.03;;;;;;;;;;5123583;28;20035;-87
2022/01/20 15:36:18;;;;;;;20.08;2.55;;;;;;;;;;5129040;28;20087;-89
2022/01/20 15:38:44;;;;;;;15.63;2.92;;;;;;;;;;5126183;28;20039;-87
2022/01/20 15:41:10;;;;;;;19.30;2.65;;;;;;;;;;5091933;28;20043;-87
2022/01/20 15:43:36;;;;;;;13.98;1.85;;;;;;;;;;5120396;28;20047;-87
2022/01/20 15:46:03;;;;;;;14.73;2.13;;;;;;;;;;5107295;28;20475;-87
2022/01/20 15:48:29;;;;;;;16.50;2.17;;;;;;;;;;5123882;28;20106;-88
2022/01/20 15:50:55;;;;;;;14.25;1.73;;;;;;;;;;5109951;27;20047;-88
2022/01/20 15:53:21;;;;;;;19.23;2.42;;;;;;;;;;5089446;28;20118;-87
2022/01/20 15:55:48;;;;;;;15.15;2.10;;;;;;;;;;5127952;27;20066;-87